sensor_id;sensor_type;location;lat;lon;timestamp;P1;durP1;ratioP1;P2;durP2;ratioP2
43813;SDS011;29669;55.706;37.656;2022-10-16T00:01:50;10.20;;;3.00;;
43813;SDS011;29669;55.706;37.656;2022-10-16T00:04:38;8.48;;;3.38;;
43813;SDS011;29669;55.706;37.656;2022-10-16T00:07:26;6.63;;;3.38;;
43813;SDS011;29669;55.706;37.656;2022-10-16T00:10:15;6.65;;;3.17;;
43813;SDS011;29669;55.706;37.656;2022-10-16T00:13:03;9.27;;;3.33;;
43813;SDS011;29669;55.706;37.656;2022-10-16T00:15:54;5.10;;;3.70;;
43813;SDS011;29669;55.706;37.656;2022-10-16T00:18:43;5.13;;;3.22;;
43813;SDS011;29669;55.706;37.656;2022-10-16T00:21:31;6.03;;;3.47;;
43813;SDS011;29669;55.706;37.656;2022-10-16T00:24:39;7.97;;;3.40;;
43813;SDS011;29669;55.706;37.656;2022-10-16T00:27:26;9.68;;;3.58;;
43813;SDS011;29669;55.706;37.656;2022-10-16T00:30:14;6.85;;;3.20;;
43813;SDS011;29669;55.706;37.656;2022-10-16T00:33:02;5.57;;;2.60;;
43813;SDS011;29669;55.706;37.656;2022-10-16T00:35:50;8.50;;;3.20;;
43813;SDS011;29669;55.706;37.656;2022-10-16T00:38:39;6.75;;;3.00;;
43813;SDS011;29669;55.706;37.656;2022-10-16T00:41:27;11.68;;;3.40;;
43813;SDS011;29669;55.706;37.656;2022-10-16T00:47:50;8.07;;;3.17;;
43813;SDS011;29669;55.706;37.656;2022-10-16T00:50:41;10.48;;;3.67;;
43813;SDS011;29669;55.706;37.656;2022-10-16T00:53:31;8.93;;;3.05;;
43813;SDS011;29669;55.706;37.656;2022-10-16T00:56:19;5.68;;;3.17;;
43813;SDS011;29669;55.706;37.656;2022-10-16T00:59:10;7.32;;;3.15;;
43813;SDS011;29669;55.706;37.656;2022-10-16T01:02:03;12.55;;;3.70;;
43813;SDS011;29669;55.706;37.656;2022-10-16T01:04:53;9.15;;;3.47;;
43813;SDS011;29669;55.706;37.656;2022-10-16T01:07:59;6.22;;;3.85;;
43813;SDS011;29669;55.706;37.656;2022-10-16T01:11:00;10.32;;;3.75;;
43813;SDS011;29669;55.706;37.656;2022-10-16T01:14:02;7.18;;;3.30;;
43813;SDS011;29669;55.706;37.656;2022-10-16T01:17:01;7.28;;;3.15;;
43813;SDS011;29669;55.706;37.656;2022-10-16T01:28:37;10.27;;;3.60;;
43813;SDS011;29669;55.706;37.656;2022-10-16T01:31:30;10.35;;;2.90;;
43813;SDS011;29669;55.706;37.656;2022-10-16T01:34:24;5.28;;;3.20;;
43813;SDS011;29669;55.706;37.656;2022-10-16T01:37:23;8.52;;;3.20;;
43813;SDS011;29669;55.706;37.656;2022-10-16T01:40:19;9.30;;;3.78;;
43813;SDS011;29669;55.706;37.656;2022-10-16T01:43:20;8.65;;;4.05;;
43813;SDS011;29669;55.706;37.656;2022-10-16T01:46:32;4.65;;;2.95;;
43813;SDS011;29669;55.706;37.656;2022-10-16T01:49:23;5.32;;;3.35;;
43813;SDS011;29669;55.706;37.656;2022-10-16T01:52:16;10.48;;;3.22;;
43813;SDS011;29669;55.706;37.656;2022-10-16T01:55:10;4.78;;;3.35;;
43813;SDS011;29669;55.706;37.656;2022-10-16T01:58:02;5.53;;;3.00;;
43813;SDS011;29669;55.706;37.656;2022-10-16T02:00:54;4.50;;;2.85;;
43813;SDS011;29669;55.706;37.656;2022-10-16T02:03:43;5.78;;;3.25;;
43813;SDS011;29669;55.706;37.656;2022-10-16T02:06:33;6.22;;;3.60;;
43813;SDS011;29669;55.706;37.656;2022-10-16T02:09:22;6.32;;;3.88;;
43813;SDS011;29669;55.706;37.656;2022-10-16T02:12:19;5.45;;;3.05;;
43813;SDS011;29669;55.706;37.656;2022-10-16T02:15:14;6.75;;;3.92;;
43813;SDS011;29669;55.706;37.656;2022-10-16T02:18:02;7.70;;;3.55;;
43813;SDS011;29669;55.706;37.656;2022-10-16T02:20:57;6.43;;;3.97;;
43813;SDS011;29669;55.706;37.656;2022-10-16T02:27:12;6.20;;;3.70;;
43813;SDS011;29669;55.706;37.656;2022-10-16T02:30:13;6.45;;;3.65;;
43813;SDS011;29669;55.706;37.656;2022-10-16T02:33:06;10.07;;;3.63;;
43813;SDS011;29669;55.706;37.656;2022-10-16T02:35:57;15.68;;;3.72;;
43813;SDS011;29669;55.706;37.656;2022-10-16T02:38:45;15.57;;;7.07;;
43813;SDS011;29669;55.706;37.656;2022-10-16T02:41:33;9.00;;;3.75;;
43813;SDS011;29669;55.706;37.656;2022-10-16T02:44:21;7.15;;;3.42;;
43813;SDS011;29669;55.706;37.656;2022-10-16T02:47:09;6.70;;;3.30;;
43813;SDS011;29669;55.706;37.656;2022-10-16T02:50:02;9.27;;;3.88;;
43813;SDS011;29669;55.706;37.656;2022-10-16T02:52:51;6.80;;;3.90;;
43813;SDS011;29669;55.706;37.656;2022-10-16T02:55:38;12.27;;;4.35;;
43813;SDS011;29669;55.706;37.656;2022-10-16T02:58:26;6.05;;;3.95;;
43813;SDS011;29669;55.706;37.656;2022-10-16T03:01:14;6.20;;;4.00;;
43813;SDS011;29669;55.706;37.656;2022-10-16T03:04:04;10.80;;;3.85;;
43813;SDS011;29669;55.706;37.656;2022-10-16T03:06:51;6.15;;;3.75;;
43813;SDS011;29669;55.706;37.656;2022-10-16T03:09:39;6.97;;;4.10;;
43813;SDS011;29669;55.706;37.656;2022-10-16T03:12:28;9.48;;;3.65;;
43813;SDS011;29669;55.706;37.656;2022-10-16T03:15:17;15.05;;;3.72;;
43813;SDS011;29669;55.706;37.656;2022-10-16T03:18:04;6.15;;;4.20;;
43813;SDS011;29669;55.706;37.656;2022-10-16T03:20:52;5.78;;;3.75;;
43813;SDS011;29669;55.706;37.656;2022-10-16T03:23:41;10.40;;;3.92;;
43813;SDS011;29669;55.706;37.656;2022-10-16T03:26:29;9.77;;;4.43;;
43813;SDS011;29669;55.706;37.656;2022-10-16T03:29:17;12.20;;;4.20;;
43813;SDS011;29669;55.706;37.656;2022-10-16T03:32:04;11.85;;;4.07;;
43813;SDS011;29669;55.706;37.656;2022-10-16T03:34:53;8.88;;;4.22;;
43813;SDS011;29669;55.706;37.656;2022-10-16T03:37:41;9.23;;;4.10;;
43813;SDS011;29669;55.706;37.656;2022-10-16T03:40:29;10.75;;;4.45;;
43813;SDS011;29669;55.706;37.656;2022-10-16T03:43:19;9.43;;;4.45;;
43813;SDS011;29669;55.706;37.656;2022-10-16T03:46:07;8.07;;;3.67;;
43813;SDS011;29669;55.706;37.656;2022-10-16T03:48:55;7.38;;;3.88;;
43813;SDS011;29669;55.706;37.656;2022-10-16T03:51:43;10.90;;;3.83;;
43813;SDS011;29669;55.706;37.656;2022-10-16T03:54:31;10.10;;;4.43;;
43813;SDS011;29669;55.706;37.656;2022-10-16T03:57:19;6.47;;;3.28;;
43813;SDS011;29669;55.706;37.656;2022-10-16T04:00:08;6.30;;;3.70;;
43813;SDS011;29669;55.706;37.656;2022-10-16T04:02:59;15.70;;;4.40;;
43813;SDS011;29669;55.706;37.656;2022-10-16T04:05:47;6.97;;;3.60;;
43813;SDS011;29669;55.706;37.656;2022-10-16T04:08:36;5.82;;;3.20;;
43813;SDS011;29669;55.706;37.656;2022-10-16T04:11:24;13.48;;;3.50;;
43813;SDS011;29669;55.706;37.656;2022-10-16T04:14:12;5.05;;;3.47;;
43813;SDS011;29669;55.706;37.656;2022-10-16T04:17:00;8.02;;;3.75;;
43813;SDS011;29669;55.706;37.656;2022-10-16T04:19:48;7.82;;;3.60;;
43813;SDS011;29669;55.706;37.656;2022-10-16T04:22:35;6.50;;;4.10;;
43813;SDS011;29669;55.706;37.656;2022-10-16T04:25:23;9.05;;;3.83;;
43813;SDS011;29669;55.706;37.656;2022-10-16T04:28:11;6.45;;;3.78;;
43813;SDS011;29669;55.706;37.656;2022-10-16T04:30:59;5.32;;;3.42;;
43813;SDS011;29669;55.706;37.656;2022-10-16T04:33:47;17.25;;;5.05;;
43813;SDS011;29669;55.706;37.656;2022-10-16T04:36:36;7.70;;;4.40;;
43813;SDS011;29669;55.706;37.656;2022-10-16T04:39:24;10.50;;;3.95;;
43813;SDS011;29669;55.706;37.656;2022-10-16T04:42:12;9.52;;;3.70;;
43813;SDS011;29669;55.706;37.656;2022-10-16T04:45:00;6.15;;;3.75;;
43813;SDS011;29669;55.706;37.656;2022-10-16T04:47:49;5.85;;;3.28;;
43813;SDS011;29669;55.706;37.656;2022-10-16T04:50:37;12.18;;;3.55;;
43813;SDS011;29669;55.706;37.656;2022-10-16T04:53:25;5.72;;;3.22;;
43813;SDS011;29669;55.706;37.656;2022-10-16T04:56:13;7.18;;;3.90;;
43813;SDS011;29669;55.706;37.656;2022-10-16T04:59:02;5.55;;;3.70;;
43813;SDS011;29669;55.706;37.656;2022-10-16T05:01:50;7.45;;;3.60;;
43813;SDS011;29669;55.706;37.656;2022-10-16T05:04:38;16.52;;;4.13;;
43813;SDS011;29669;55.706;37.656;2022-10-16T05:07:26;11.05;;;3.78;;
43813;SDS011;29669;55.706;37.656;2022-10-16T05:10:14;9.05;;;4.55;;
43813;SDS011;29669;55.706;37.656;2022-10-16T05:13:03;6.05;;;3.78;;
43813;SDS011;29669;55.706;37.656;2022-10-16T05:15:51;12.68;;;4.72;;
43813;SDS011;29669;55.706;37.656;2022-10-16T05:18:39;7.57;;;4.60;;
43813;SDS011;29669;55.706;37.656;2022-10-16T05:21:27;10.77;;;4.13;;
43813;SDS011;29669;55.706;37.656;2022-10-16T05:24:15;8.60;;;4.43;;
43813;SDS011;29669;55.706;37.656;2022-10-16T05:27:03;7.55;;;4.43;;
43813;SDS011;29669;55.706;37.656;2022-10-16T05:29:51;6.60;;;3.92;;
43813;SDS011;29669;55.706;37.656;2022-10-16T05:32:39;6.68;;;4.03;;
43813;SDS011;29669;55.706;37.656;2022-10-16T05:35:27;10.82;;;4.50;;
43813;SDS011;29669;55.706;37.656;2022-10-16T05:38:15;7.80;;;4.18;;
43813;SDS011;29669;55.706;37.656;2022-10-16T05:41:04;10.25;;;3.83;;
43813;SDS011;29669;55.706;37.656;2022-10-16T05:43:52;10.18;;;3.92;;
43813;SDS011;29669;55.706;37.656;2022-10-16T05:46:40;9.20;;;4.38;;
43813;SDS011;29669;55.706;37.656;2022-10-16T05:49:28;8.10;;;4.00;;
43813;SDS011;29669;55.706;37.656;2022-10-16T05:52:16;13.40;;;4.28;;
43813;SDS011;29669;55.706;37.656;2022-10-16T05:55:04;12.02;;;5.00;;
43813;SDS011;29669;55.706;37.656;2022-10-16T05:57:55;6.72;;;4.35;;
43813;SDS011;29669;55.706;37.656;2022-10-16T06:00:43;16.52;;;4.60;;
43813;SDS011;29669;55.706;37.656;2022-10-16T06:03:32;9.43;;;3.95;;
43813;SDS011;29669;55.706;37.656;2022-10-16T06:06:21;5.97;;;3.80;;
43813;SDS011;29669;55.706;37.656;2022-10-16T06:09:10;15.48;;;4.22;;
43813;SDS011;29669;55.706;37.656;2022-10-16T06:11:58;9.27;;;3.85;;
43813;SDS011;29669;55.706;37.656;2022-10-16T06:14:46;7.93;;;4.13;;
43813;SDS011;29669;55.706;37.656;2022-10-16T06:17:37;7.07;;;4.68;;
43813;SDS011;29669;55.706;37.656;2022-10-16T06:20:24;8.68;;;4.72;;
43813;SDS011;29669;55.706;37.656;2022-10-16T06:23:13;8.88;;;4.03;;
43813;SDS011;29669;55.706;37.656;2022-10-16T06:26:07;12.60;;;3.90;;
43813;SDS011;29669;55.706;37.656;2022-10-16T06:29:03;11.48;;;4.22;;
43813;SDS011;29669;55.706;37.656;2022-10-16T06:31:51;8.30;;;5.05;;
43813;SDS011;29669;55.706;37.656;2022-10-16T06:34:40;10.70;;;3.80;;
43813;SDS011;29669;55.706;37.656;2022-10-16T06:37:30;8.05;;;3.58;;
43813;SDS011;29669;55.706;37.656;2022-10-16T06:40:18;13.00;;;4.07;;
43813;SDS011;29669;55.706;37.656;2022-10-16T06:43:06;7.38;;;3.92;;
43813;SDS011;29669;55.706;37.656;2022-10-16T06:45:54;8.80;;;3.90;;
43813;SDS011;29669;55.706;37.656;2022-10-16T06:48:44;7.20;;;3.47;;
43813;SDS011;29669;55.706;37.656;2022-10-16T06:51:47;5.45;;;3.55;;
43813;SDS011;29669;55.706;37.656;2022-10-16T06:54:36;6.65;;;3.85;;
43813;SDS011;29669;55.706;37.656;2022-10-16T06:57:29;9.35;;;3.45;;
43813;SDS011;29669;55.706;37.656;2022-10-16T07:00:16;9.73;;;4.30;;
43813;SDS011;29669;55.706;37.656;2022-10-16T07:03:04;9.05;;;4.18;;
43813;SDS011;29669;55.706;37.656;2022-10-16T07:05:52;8.43;;;3.75;;
43813;SDS011;29669;55.706;37.656;2022-10-16T07:08:41;12.48;;;4.10;;
43813;SDS011;29669;55.706;37.656;2022-10-16T07:11:30;6.65;;;4.00;;
43813;SDS011;29669;55.706;37.656;2022-10-16T07:14:19;8.20;;;3.53;;
43813;SDS011;29669;55.706;37.656;2022-10-16T07:17:08;10.73;;;4.72;;
43813;SDS011;29669;55.706;37.656;2022-10-16T07:19:56;9.60;;;4.80;;
43813;SDS011;29669;55.706;37.656;2022-10-16T07:22:44;8.75;;;3.83;;
43813;SDS011;29669;55.706;37.656;2022-10-16T07:25:32;7.43;;;3.83;;
43813;SDS011;29669;55.706;37.656;2022-10-16T07:28:20;7.20;;;3.63;;
43813;SDS011;29669;55.706;37.656;2022-10-16T07:31:10;6.78;;;3.83;;
43813;SDS011;29669;55.706;37.656;2022-10-16T07:34:00;10.77;;;4.15;;
43813;SDS011;29669;55.706;37.656;2022-10-16T07:36:49;6.97;;;3.65;;
43813;SDS011;29669;55.706;37.656;2022-10-16T07:39:37;8.55;;;4.78;;
43813;SDS011;29669;55.706;37.656;2022-10-16T07:42:26;9.85;;;4.10;;
43813;SDS011;29669;55.706;37.656;2022-10-16T07:45:15;14.38;;;4.00;;
43813;SDS011;29669;55.706;37.656;2022-10-16T07:48:03;13.55;;;4.00;;
43813;SDS011;29669;55.706;37.656;2022-10-16T07:50:51;10.10;;;4.22;;
43813;SDS011;29669;55.706;37.656;2022-10-16T07:53:42;6.85;;;3.95;;
43813;SDS011;29669;55.706;37.656;2022-10-16T07:56:30;10.68;;;4.30;;
43813;SDS011;29669;55.706;37.656;2022-10-16T07:59:20;7.25;;;3.65;;
43813;SDS011;29669;55.706;37.656;2022-10-16T08:02:08;7.50;;;4.30;;
43813;SDS011;29669;55.706;37.656;2022-10-16T08:04:55;6.03;;;3.63;;
43813;SDS011;29669;55.706;37.656;2022-10-16T08:07:48;10.05;;;4.13;;
43813;SDS011;29669;55.706;37.656;2022-10-16T08:10:37;12.38;;;3.80;;
43813;SDS011;29669;55.706;37.656;2022-10-16T08:13:25;11.23;;;3.45;;
43813;SDS011;29669;55.706;37.656;2022-10-16T08:16:14;11.98;;;4.47;;
43813;SDS011;29669;55.706;37.656;2022-10-16T08:19:02;11.52;;;4.03;;
43813;SDS011;29669;55.706;37.656;2022-10-16T08:21:50;8.60;;;3.45;;
43813;SDS011;29669;55.706;37.656;2022-10-16T08:24:38;9.38;;;3.78;;
43813;SDS011;29669;55.706;37.656;2022-10-16T08:27:30;10.88;;;3.20;;
43813;SDS011;29669;55.706;37.656;2022-10-16T08:30:19;7.18;;;3.83;;
43813;SDS011;29669;55.706;37.656;2022-10-16T08:33:08;7.90;;;3.33;;
43813;SDS011;29669;55.706;37.656;2022-10-16T08:35:57;11.15;;;3.75;;
43813;SDS011;29669;55.706;37.656;2022-10-16T08:38:48;12.30;;;3.63;;
43813;SDS011;29669;55.706;37.656;2022-10-16T08:41:46;7.25;;;3.13;;
43813;SDS011;29669;55.706;37.656;2022-10-16T08:50:56;5.63;;;3.00;;
43813;SDS011;29669;55.706;37.656;2022-10-16T08:53:46;6.07;;;2.92;;
43813;SDS011;29669;55.706;37.656;2022-10-16T08:56:39;7.88;;;3.42;;
43813;SDS011;29669;55.706;37.656;2022-10-16T08:59:27;11.13;;;3.55;;
43813;SDS011;29669;55.706;37.656;2022-10-16T09:02:21;7.40;;;3.30;;
43813;SDS011;29669;55.706;37.656;2022-10-16T09:08:28;5.43;;;3.60;;
43813;SDS011;29669;55.706;37.656;2022-10-16T09:17:36;4.95;;;3.15;;
43813;SDS011;29669;55.706;37.656;2022-10-16T09:20:38;16.10;;;3.60;;
43813;SDS011;29669;55.706;37.656;2022-10-16T09:23:36;10.20;;;3.00;;
43813;SDS011;29669;55.706;37.656;2022-10-16T09:26:25;6.65;;;3.33;;
43813;SDS011;29669;55.706;37.656;2022-10-16T09:29:16;5.45;;;3.00;;
43813;SDS011;29669;55.706;37.656;2022-10-16T09:32:19;8.05;;;3.70;;
43813;SDS011;29669;55.706;37.656;2022-10-16T09:35:13;5.93;;;2.72;;
43813;SDS011;29669;55.706;37.656;2022-10-16T09:38:04;8.00;;;2.93;;
43813;SDS011;29669;55.706;37.656;2022-10-16T09:40:52;3.60;;;2.72;;
43813;SDS011;29669;55.706;37.656;2022-10-16T09:43:55;6.60;;;3.28;;
43813;SDS011;29669;55.706;37.656;2022-10-16T09:46:45;10.20;;;3.10;;
43813;SDS011;29669;55.706;37.656;2022-10-16T09:49:33;6.68;;;2.65;;
43813;SDS011;29669;55.706;37.656;2022-10-16T09:52:21;4.75;;;2.50;;
43813;SDS011;29669;55.706;37.656;2022-10-16T09:55:16;3.40;;;2.63;;
43813;SDS011;29669;55.706;37.656;2022-10-16T09:58:11;7.40;;;2.80;;
43813;SDS011;29669;55.706;37.656;2022-10-16T10:01:02;4.10;;;2.33;;
43813;SDS011;29669;55.706;37.656;2022-10-16T10:03:50;4.32;;;2.78;;
43813;SDS011;29669;55.706;37.656;2022-10-16T10:06:41;8.73;;;2.75;;
43813;SDS011;29669;55.706;37.656;2022-10-16T10:09:31;4.53;;;2.75;;
43813;SDS011;29669;55.706;37.656;2022-10-16T10:12:28;6.18;;;2.30;;
43813;SDS011;29669;55.706;37.656;2022-10-16T10:15:20;2.97;;;2.45;;
43813;SDS011;29669;55.706;37.656;2022-10-16T10:18:15;7.85;;;2.70;;
43813;SDS011;29669;55.706;37.656;2022-10-16T10:21:04;6.60;;;2.83;;
43813;SDS011;29669;55.706;37.656;2022-10-16T10:23:56;6.47;;;2.42;;
43813;SDS011;29669;55.706;37.656;2022-10-16T10:29:46;7.00;;;2.40;;
43813;SDS011;29669;55.706;37.656;2022-10-16T10:39:28;3.35;;;2.60;;
43813;SDS011;29669;55.706;37.656;2022-10-16T10:42:44;7.05;;;2.78;;
43813;SDS011;29669;55.706;37.656;2022-10-16T10:45:42;4.85;;;2.47;;
43813;SDS011;29669;55.706;37.656;2022-10-16T10:49:39;8.73;;;3.00;;
43813;SDS011;29669;55.706;37.656;2022-10-16T11:01:40;6.68;;;2.58;;
43813;SDS011;29669;55.706;37.656;2022-10-16T11:08:11;7.05;;;2.70;;
43813;SDS011;29669;55.706;37.656;2022-10-16T11:11:07;7.07;;;2.42;;
43813;SDS011;29669;55.706;37.656;2022-10-16T11:14:11;3.53;;;2.65;;
43813;SDS011;29669;55.706;37.656;2022-10-16T11:17:16;3.63;;;2.17;;
43813;SDS011;29669;55.706;37.656;2022-10-16T11:23:09;3.88;;;2.45;;
43813;SDS011;29669;55.706;37.656;2022-10-16T11:26:05;3.13;;;2.65;;
43813;SDS011;29669;55.706;37.656;2022-10-16T11:29:02;8.68;;;2.97;;
43813;SDS011;29669;55.706;37.656;2022-10-16T11:32:00;4.45;;;2.80;;
43813;SDS011;29669;55.706;37.656;2022-10-16T11:35:55;6.30;;;3.03;;
43813;SDS011;29669;55.706;37.656;2022-10-16T11:38:32;3.33;;;2.40;;
43813;SDS011;29669;55.706;37.656;2022-10-16T11:41:35;8.95;;;2.85;;
43813;SDS011;29669;55.706;37.656;2022-10-16T11:48:20;7.47;;;2.58;;
43813;SDS011;29669;55.706;37.656;2022-10-16T11:57:14;5.38;;;2.28;;
43813;SDS011;29669;55.706;37.656;2022-10-16T12:00:14;5.40;;;2.78;;
43813;SDS011;29669;55.706;37.656;2022-10-16T12:03:29;4.35;;;2.60;;
43813;SDS011;29669;55.706;37.656;2022-10-16T12:06:35;4.35;;;2.47;;
43813;SDS011;29669;55.706;37.656;2022-10-16T12:09:28;9.00;;;3.13;;
43813;SDS011;29669;55.706;37.656;2022-10-16T12:12:25;11.45;;;2.53;;
43813;SDS011;29669;55.706;37.656;2022-10-16T12:18:23;5.80;;;3.25;;
43813;SDS011;29669;55.706;37.656;2022-10-16T12:21:12;9.15;;;2.92;;
43813;SDS011;29669;55.706;37.656;2022-10-16T12:24:03;4.90;;;2.65;;
43813;SDS011;29669;55.706;37.656;2022-10-16T12:26:52;5.28;;;2.65;;
43813;SDS011;29669;55.706;37.656;2022-10-16T12:29:41;7.93;;;2.60;;
43813;SDS011;29669;55.706;37.656;2022-10-16T12:32:35;6.20;;;2.75;;
43813;SDS011;29669;55.706;37.656;2022-10-16T12:35:34;8.75;;;2.40;;
43813;SDS011;29669;55.706;37.656;2022-10-16T12:38:44;4.28;;;2.53;;
43813;SDS011;29669;55.706;37.656;2022-10-16T12:41:35;5.68;;;2.55;;
43813;SDS011;29669;55.706;37.656;2022-10-16T12:44:27;4.55;;;2.90;;
43813;SDS011;29669;55.706;37.656;2022-10-16T12:53:19;4.55;;;2.30;;
43813;SDS011;29669;55.706;37.656;2022-10-16T12:56:27;7.15;;;2.60;;
43813;SDS011;29669;55.706;37.656;2022-10-16T13:05:26;9.80;;;3.22;;
43813;SDS011;29669;55.706;37.656;2022-10-16T13:20:26;8.65;;;2.88;;
43813;SDS011;29669;55.706;37.656;2022-10-16T13:23:44;4.43;;;2.88;;
43813;SDS011;29669;55.706;37.656;2022-10-16T13:30:11;5.60;;;2.30;;
43813;SDS011;29669;55.706;37.656;2022-10-16T13:33:04;7.72;;;2.65;;
43813;SDS011;29669;55.706;37.656;2022-10-16T13:36:00;4.20;;;2.35;;
43813;SDS011;29669;55.706;37.656;2022-10-16T13:38:58;6.25;;;3.00;;
43813;SDS011;29669;55.706;37.656;2022-10-16T13:41:58;6.88;;;2.95;;
43813;SDS011;29669;55.706;37.656;2022-10-16T13:45:05;11.90;;;2.65;;
43813;SDS011;29669;55.706;37.656;2022-10-16T13:48:06;6.07;;;2.75;;
43813;SDS011;29669;55.706;37.656;2022-10-16T13:51:00;5.75;;;2.33;;
43813;SDS011;29669;55.706;37.656;2022-10-16T13:53:50;6.63;;;2.90;;
43813;SDS011;29669;55.706;37.656;2022-10-16T13:56:39;8.35;;;2.75;;
43813;SDS011;29669;55.706;37.656;2022-10-16T13:59:34;9.65;;;2.75;;
43813;SDS011;29669;55.706;37.656;2022-10-16T14:02:33;9.43;;;2.78;;
43813;SDS011;29669;55.706;37.656;2022-10-16T14:05:24;9.23;;;2.83;;
43813;SDS011;29669;55.706;37.656;2022-10-16T14:08:12;7.57;;;3.33;;
43813;SDS011;29669;55.706;37.656;2022-10-16T14:11:00;4.88;;;2.92;;
43813;SDS011;29669;55.706;37.656;2022-10-16T14:13:49;6.30;;;3.22;;
43813;SDS011;29669;55.706;37.656;2022-10-16T14:16:42;11.32;;;3.25;;
43813;SDS011;29669;55.706;37.656;2022-10-16T14:19:48;8.45;;;3.60;;
43813;SDS011;29669;55.706;37.656;2022-10-16T14:22:43;9.98;;;3.17;;
43813;SDS011;29669;55.706;37.656;2022-10-16T14:25:32;9.98;;;3.15;;
43813;SDS011;29669;55.706;37.656;2022-10-16T14:28:21;11.50;;;3.40;;
43813;SDS011;29669;55.706;37.656;2022-10-16T14:31:27;4.68;;;2.90;;
43813;SDS011;29669;55.706;37.656;2022-10-16T14:34:23;11.48;;;3.50;;
43813;SDS011;29669;55.706;37.656;2022-10-16T14:37:19;6.25;;;3.60;;
43813;SDS011;29669;55.706;37.656;2022-10-16T14:40:15;6.70;;;3.42;;
43813;SDS011;29669;55.706;37.656;2022-10-16T14:43:04;7.20;;;3.25;;
43813;SDS011;29669;55.706;37.656;2022-10-16T14:45:53;10.20;;;3.38;;
43813;SDS011;29669;55.706;37.656;2022-10-16T14:48:52;12.52;;;3.53;;
43813;SDS011;29669;55.706;37.656;2022-10-16T14:51:46;12.48;;;3.38;;
43813;SDS011;29669;55.706;37.656;2022-10-16T14:54:34;12.10;;;4.35;;
43813;SDS011;29669;55.706;37.656;2022-10-16T14:57:23;6.25;;;2.83;;
43813;SDS011;29669;55.706;37.656;2022-10-16T15:00:16;11.85;;;3.25;;
43813;SDS011;29669;55.706;37.656;2022-10-16T15:03:08;6.25;;;3.45;;
43813;SDS011;29669;55.706;37.656;2022-10-16T15:05:56;10.40;;;3.70;;
43813;SDS011;29669;55.706;37.656;2022-10-16T15:08:44;6.85;;;3.25;;
43813;SDS011;29669;55.706;37.656;2022-10-16T15:11:32;8.07;;;3.35;;
43813;SDS011;29669;55.706;37.656;2022-10-16T15:14:20;5.22;;;3.35;;
43813;SDS011;29669;55.706;37.656;2022-10-16T15:17:09;4.95;;;4.10;;
43813;SDS011;29669;55.706;37.656;2022-10-16T15:19:58;11.23;;;3.40;;
43813;SDS011;29669;55.706;37.656;2022-10-16T15:22:47;7.75;;;3.85;;
43813;SDS011;29669;55.706;37.656;2022-10-16T15:25:39;15.55;;;3.60;;
43813;SDS011;29669;55.706;37.656;2022-10-16T15:28:35;9.88;;;3.42;;
43813;SDS011;29669;55.706;37.656;2022-10-16T15:31:23;8.98;;;3.78;;
43813;SDS011;29669;55.706;37.656;2022-10-16T15:34:11;5.05;;;2.97;;
43813;SDS011;29669;55.706;37.656;2022-10-16T15:37:02;6.85;;;3.28;;
43813;SDS011;29669;55.706;37.656;2022-10-16T15:39:51;6.47;;;2.83;;
43813;SDS011;29669;55.706;37.656;2022-10-16T15:42:39;4.40;;;2.78;;
43813;SDS011;29669;55.706;37.656;2022-10-16T15:45:27;9.07;;;3.40;;
43813;SDS011;29669;55.706;37.656;2022-10-16T15:48:14;4.57;;;3.08;;
43813;SDS011;29669;55.706;37.656;2022-10-16T15:51:06;6.38;;;3.03;;
43813;SDS011;29669;55.706;37.656;2022-10-16T15:53:55;8.63;;;3.55;;
43813;SDS011;29669;55.706;37.656;2022-10-16T15:56:44;8.70;;;3.65;;
43813;SDS011;29669;55.706;37.656;2022-10-16T15:59:32;8.65;;;3.58;;
43813;SDS011;29669;55.706;37.656;2022-10-16T16:02:20;4.50;;;3.03;;
43813;SDS011;29669;55.706;37.656;2022-10-16T16:05:09;9.43;;;3.55;;
43813;SDS011;29669;55.706;37.656;2022-10-16T16:07:58;5.85;;;3.08;;
43813;SDS011;29669;55.706;37.656;2022-10-16T16:10:56;6.43;;;3.97;;
43813;SDS011;29669;55.706;37.656;2022-10-16T16:13:46;9.13;;;4.05;;
43813;SDS011;29669;55.706;37.656;2022-10-16T16:16:33;8.95;;;3.53;;
43813;SDS011;29669;55.706;37.656;2022-10-16T16:19:24;5.03;;;4.00;;
43813;SDS011;29669;55.706;37.656;2022-10-16T16:22:12;4.93;;;2.85;;
43813;SDS011;29669;55.706;37.656;2022-10-16T16:25:00;4.72;;;3.40;;
43813;SDS011;29669;55.706;37.656;2022-10-16T16:27:49;3.97;;;3.17;;
43813;SDS011;29669;55.706;37.656;2022-10-16T16:30:37;6.20;;;3.20;;
43813;SDS011;29669;55.706;37.656;2022-10-16T16:33:25;4.25;;;3.08;;
43813;SDS011;29669;55.706;37.656;2022-10-16T16:36:13;7.60;;;3.53;;
43813;SDS011;29669;55.706;37.656;2022-10-16T16:39:02;7.88;;;3.53;;
43813;SDS011;29669;55.706;37.656;2022-10-16T16:41:50;10.63;;;3.85;;
43813;SDS011;29669;55.706;37.656;2022-10-16T16:44:38;5.93;;;3.40;;
43813;SDS011;29669;55.706;37.656;2022-10-16T16:47:26;5.88;;;3.75;;
43813;SDS011;29669;55.706;37.656;2022-10-16T16:50:14;12.00;;;3.33;;
43813;SDS011;29669;55.706;37.656;2022-10-16T16:53:03;4.82;;;2.92;;
43813;SDS011;29669;55.706;37.656;2022-10-16T16:55:50;8.40;;;3.42;;
43813;SDS011;29669;55.706;37.656;2022-10-16T16:58:39;5.82;;;2.97;;
43813;SDS011;29669;55.706;37.656;2022-10-16T17:01:27;5.95;;;3.20;;
43813;SDS011;29669;55.706;37.656;2022-10-16T17:04:16;7.95;;;3.25;;
43813;SDS011;29669;55.706;37.656;2022-10-16T17:07:04;11.50;;;3.65;;
43813;SDS011;29669;55.706;37.656;2022-10-16T17:09:52;5.07;;;2.92;;
43813;SDS011;29669;55.706;37.656;2022-10-16T17:12:40;8.80;;;3.97;;
43813;SDS011;29669;55.706;37.656;2022-10-16T17:15:28;5.72;;;3.33;;
43813;SDS011;29669;55.706;37.656;2022-10-16T17:18:16;5.85;;;3.28;;
43813;SDS011;29669;55.706;37.656;2022-10-16T17:21:05;7.18;;;3.10;;
43813;SDS011;29669;55.706;37.656;2022-10-16T17:23:54;8.85;;;3.20;;
43813;SDS011;29669;55.706;37.656;2022-10-16T17:26:42;4.82;;;3.20;;
43813;SDS011;29669;55.706;37.656;2022-10-16T17:29:35;8.23;;;3.00;;
43813;SDS011;29669;55.706;37.656;2022-10-16T17:32:23;4.40;;;3.10;;
43813;SDS011;29669;55.706;37.656;2022-10-16T17:35:11;5.35;;;2.70;;
43813;SDS011;29669;55.706;37.656;2022-10-16T17:37:59;6.20;;;2.75;;
43813;SDS011;29669;55.706;37.656;2022-10-16T17:40:47;7.07;;;2.92;;
43813;SDS011;29669;55.706;37.656;2022-10-16T17:43:36;4.82;;;2.90;;
43813;SDS011;29669;55.706;37.656;2022-10-16T17:46:25;7.78;;;3.65;;
43813;SDS011;29669;55.706;37.656;2022-10-16T17:49:13;8.38;;;3.40;;
43813;SDS011;29669;55.706;37.656;2022-10-16T17:52:02;5.40;;;2.65;;
43813;SDS011;29669;55.706;37.656;2022-10-16T17:54:50;9.10;;;2.80;;
43813;SDS011;29669;55.706;37.656;2022-10-16T17:57:42;8.02;;;2.80;;
43813;SDS011;29669;55.706;37.656;2022-10-16T18:00:30;4.20;;;2.80;;
43813;SDS011;29669;55.706;37.656;2022-10-16T18:03:19;4.68;;;3.00;;
43813;SDS011;29669;55.706;37.656;2022-10-16T18:06:07;5.35;;;3.25;;
43813;SDS011;29669;55.706;37.656;2022-10-16T18:08:55;5.85;;;3.10;;
43813;SDS011;29669;55.706;37.656;2022-10-16T18:11:45;4.80;;;2.90;;
43813;SDS011;29669;55.706;37.656;2022-10-16T18:14:33;5.18;;;2.88;;
43813;SDS011;29669;55.706;37.656;2022-10-16T18:17:21;6.05;;;3.13;;
43813;SDS011;29669;55.706;37.656;2022-10-16T18:20:09;6.97;;;3.08;;
43813;SDS011;29669;55.706;37.656;2022-10-16T18:22:58;6.63;;;3.30;;
43813;SDS011;29669;55.706;37.656;2022-10-16T18:25:49;3.63;;;2.70;;
43813;SDS011;29669;55.706;37.656;2022-10-16T18:28:37;8.20;;;3.40;;
43813;SDS011;29669;55.706;37.656;2022-10-16T18:31:25;4.22;;;2.60;;